Nassawadox, Virginia
Current Conditions -  °F | °C
As of 10:35 AM on Saturday 20 Dec 2014 (Local Time) from KMFV Reporting Station
Clear Clear  
Wind Chill: 32°   Ceiling: Unl
Heat Index: 36°   Visibility: 10mi
Dew Point: 25°   Wind: 5mph
Humidity: 65%   Direction: 10°N
Pressure: 30.31"   Gusts: NA
Location:  37.47°N, 75.86°W
Report Text: KMFV 201535Z AUTO 01004KT 10SM CLR 02/M04 A3031 RMK AO2
Loading
Personal Weather Stations






























Interactive Weather Map New forecast layout! Learn more

10-Day Weather Forecast

Advertisements
Track Severe Weather on mobile